sensor_id;sensor_type;location;lat;lon;timestamp;pressure;altitude;pressure_sealevel;temperature;humidity
50682;BME280;36779;52.168;20.878;2024-03-02T00:02:27;100201.40;;;6.50;73.85
50682;BME280;36779;52.168;20.878;2024-03-02T00:05:00;100205.35;;;6.49;73.92
50682;BME280;36779;52.168;20.878;2024-03-02T00:07:32;100199.92;;;6.50;73.86
50682;BME280;36779;52.168;20.878;2024-03-02T00:10:11;100194.54;;;6.51;73.98
50682;BME280;36779;52.168;20.878;2024-03-02T00:12:48;100192.13;;;6.52;73.93
50682;BME280;36779;52.168;20.878;2024-03-02T00:15:44;100194.01;;;6.53;73.89
50682;BME280;36779;52.168;20.878;2024-03-02T00:18:20;100196.34;;;6.53;74.02
50682;BME280;36779;52.168;20.878;2024-03-02T00:20:55;100197.80;;;6.52;74.10
50682;BME280;36779;52.168;20.878;2024-03-02T00:23:31;100193.35;;;6.51;74.06
50682;BME280;36779;52.168;20.878;2024-03-02T00:26:05;100191.75;;;6.49;74.09
50682;BME280;36779;52.168;20.878;2024-03-02T00:28:45;100191.65;;;6.46;74.06
50682;BME280;36779;52.168;20.878;2024-03-02T00:31:21;100189.50;;;6.45;74.04
50682;BME280;36779;52.168;20.878;2024-03-02T00:33:54;100186.27;;;6.43;74.05
50682;BME280;36779;52.168;20.878;2024-03-02T00:36:27;100185.55;;;6.43;74.05
50682;BME280;36779;52.168;20.878;2024-03-02T00:38:59;100185.98;;;6.44;74.03
50682;BME280;36779;52.168;20.878;2024-03-02T00:41:33;100188.44;;;6.44;74.18
50682;BME280;36779;52.168;20.878;2024-03-02T00:44:07;100188.70;;;6.45;74.03
50682;BME280;36779;52.168;20.878;2024-03-02T00:46:47;100188.77;;;6.46;74.14
50682;BME280;36779;52.168;20.878;2024-03-02T00:49:22;100190.61;;;6.48;74.15
50682;BME280;36779;52.168;20.878;2024-03-02T00:51:57;100191.45;;;6.46;74.02
50682;BME280;36779;52.168;20.878;2024-03-02T00:54:49;100194.83;;;6.44;74.06
50682;BME280;36779;52.168;20.878;2024-03-02T00:57:24;100190.45;;;6.40;73.97
50682;BME280;36779;52.168;20.878;2024-03-02T00:59:58;100198.58;;;6.36;74.16
50682;BME280;36779;52.168;20.878;2024-03-02T01:02:30;100195.27;;;6.33;74.03
50682;BME280;36779;52.168;20.878;2024-03-02T01:05:03;100190.41;;;6.32;74.07
50682;BME280;36779;52.168;20.878;2024-03-02T01:07:36;100187.05;;;6.31;74.00
50682;BME280;36779;52.168;20.878;2024-03-02T01:10:16;100187.72;;;6.29;74.11
50682;BME280;36779;52.168;20.878;2024-03-02T01:12:49;100188.36;;;6.30;74.08
50682;BME280;36779;52.168;20.878;2024-03-02T01:15:21;100182.92;;;6.29;74.10
50682;BME280;36779;52.168;20.878;2024-03-02T01:17:58;100182.73;;;6.29;74.04
50682;BME280;36779;52.168;20.878;2024-03-02T01:20:30;100183.70;;;6.29;74.16
50682;BME280;36779;52.168;20.878;2024-03-02T01:23:03;100185.48;;;6.27;74.09
50682;BME280;36779;52.168;20.878;2024-03-02T01:25:35;100185.91;;;6.24;74.15
50682;BME280;36779;52.168;20.878;2024-03-02T01:28:08;100183.27;;;6.20;74.04
50682;BME280;36779;52.168;20.878;2024-03-02T01:30:43;100182.36;;;6.16;74.19
50682;BME280;36779;52.168;20.878;2024-03-02T01:33:22;100184.79;;;6.13;74.17
50682;BME280;36779;52.168;20.878;2024-03-02T01:35:54;100178.80;;;6.09;74.13
50682;BME280;36779;52.168;20.878;2024-03-02T01:38:26;100173.70;;;6.06;74.21
50682;BME280;36779;52.168;20.878;2024-03-02T01:40:59;100167.67;;;6.05;74.09
50682;BME280;36779;52.168;20.878;2024-03-02T01:43:31;100166.65;;;6.05;74.14
50682;BME280;36779;52.168;20.878;2024-03-02T01:46:04;100159.85;;;6.04;74.19
50682;BME280;36779;52.168;20.878;2024-03-02T01:48:45;100160.05;;;6.04;74.08
50682;BME280;36779;52.168;20.878;2024-03-02T01:51:22;100156.59;;;6.04;74.18
50682;BME280;36779;52.168;20.878;2024-03-02T01:53:54;100157.81;;;6.05;74.30
50682;BME280;36779;52.168;20.878;2024-03-02T01:56:26;100160.73;;;6.04;74.16
50682;BME280;36779;52.168;20.878;2024-03-02T01:58:58;100156.81;;;6.00;74.20
50682;BME280;36779;52.168;20.878;2024-03-02T02:01:30;100156.40;;;5.97;74.20
50682;BME280;36779;52.168;20.878;2024-03-02T02:04:03;100155.07;;;5.94;74.29
50682;BME280;36779;52.168;20.878;2024-03-02T02:06:37;100158.14;;;5.91;74.35
50682;BME280;36779;52.168;20.878;2024-03-02T02:09:09;100159.05;;;5.88;74.25
50682;BME280;36779;52.168;20.878;2024-03-02T02:11:43;100161.11;;;5.87;74.25
50682;BME280;36779;52.168;20.878;2024-03-02T02:14:18;100163.27;;;5.87;74.29
50682;BME280;36779;52.168;20.878;2024-03-02T02:16:53;100158.86;;;5.87;74.27
50682;BME280;36779;52.168;20.878;2024-03-02T02:19:26;100155.86;;;5.87;74.37
50682;BME280;36779;52.168;20.878;2024-03-02T02:21:58;100151.39;;;5.87;74.33
50682;BME280;36779;52.168;20.878;2024-03-02T02:24:30;100152.79;;;5.89;74.25
50682;BME280;36779;52.168;20.878;2024-03-02T02:27:02;100153.36;;;5.89;74.20
50682;BME280;36779;52.168;20.878;2024-03-02T02:29:34;100150.86;;;5.87;74.26
50682;BME280;36779;52.168;20.878;2024-03-02T02:32:07;100150.64;;;5.86;74.42
50682;BME280;36779;52.168;20.878;2024-03-02T02:34:39;100143.09;;;5.84;74.37
50682;BME280;36779;52.168;20.878;2024-03-02T02:37:12;100140.94;;;5.80;74.38
50682;BME280;36779;52.168;20.878;2024-03-02T02:39:45;100139.98;;;5.75;74.32
50682;BME280;36779;52.168;20.878;2024-03-02T02:42:17;100140.17;;;5.71;74.45
50682;BME280;36779;52.168;20.878;2024-03-02T02:44:50;100136.47;;;5.69;74.46
50682;BME280;36779;52.168;20.878;2024-03-02T02:47:27;100133.17;;;5.66;74.34
50682;BME280;36779;52.168;20.878;2024-03-02T02:50:00;100137.48;;;5.65;74.30
50682;BME280;36779;52.168;20.878;2024-03-02T02:52:34;100135.02;;;5.65;74.33
50682;BME280;36779;52.168;20.878;2024-03-02T02:55:09;100136.02;;;5.64;74.35
50682;BME280;36779;52.168;20.878;2024-03-02T02:57:42;100132.77;;;5.63;74.28
50682;BME280;36779;52.168;20.878;2024-03-02T03:00:17;100131.52;;;5.63;74.35
50682;BME280;36779;52.168;20.878;2024-03-02T03:02:56;100131.46;;;5.64;74.40
50682;BME280;36779;52.168;20.878;2024-03-02T03:05:29;100130.20;;;5.64;74.47
50682;BME280;36779;52.168;20.878;2024-03-02T03:08:01;100123.19;;;5.64;74.43
50682;BME280;36779;52.168;20.878;2024-03-02T03:10:34;100123.20;;;5.64;74.50
50682;BME280;36779;52.168;20.878;2024-03-02T03:13:06;100119.50;;;5.62;74.43
50682;BME280;36779;52.168;20.878;2024-03-02T03:15:39;100121.48;;;5.59;74.49
50682;BME280;36779;52.168;20.878;2024-03-02T03:18:15;100124.48;;;5.55;74.49
50682;BME280;36779;52.168;20.878;2024-03-02T03:20:51;100124.48;;;5.49;74.37
50682;BME280;36779;52.168;20.878;2024-03-02T03:23:23;100124.70;;;5.45;74.39
50682;BME280;36779;52.168;20.878;2024-03-02T03:25:57;100125.94;;;5.40;74.45
50682;BME280;36779;52.168;20.878;2024-03-02T03:28:32;100124.18;;;5.38;74.50
50682;BME280;36779;52.168;20.878;2024-03-02T03:31:05;100127.05;;;5.38;74.49
50682;BME280;36779;52.168;20.878;2024-03-02T03:33:46;100122.81;;;5.36;74.42
50682;BME280;36779;52.168;20.878;2024-03-02T03:36:19;100122.53;;;5.35;74.42
50682;BME280;36779;52.168;20.878;2024-03-02T03:38:51;100127.45;;;5.35;74.42
50682;BME280;36779;52.168;20.878;2024-03-02T03:41:23;100127.71;;;5.36;74.53
50682;BME280;36779;52.168;20.878;2024-03-02T03:43:56;100124.02;;;5.38;74.50
50682;BME280;36779;52.168;20.878;2024-03-02T03:46:28;100122.16;;;5.39;74.55
50682;BME280;36779;52.168;20.878;2024-03-02T03:49:03;100120.44;;;5.41;74.55
50682;BME280;36779;52.168;20.878;2024-03-02T03:51:36;100119.77;;;5.42;74.64
50682;BME280;36779;52.168;20.878;2024-03-02T03:54:18;100114.63;;;5.43;74.67
50682;BME280;36779;52.168;20.878;2024-03-02T03:56:50;100116.14;;;5.42;74.64
50682;BME280;36779;52.168;20.878;2024-03-02T03:59:23;100118.50;;;5.39;74.73
50682;BME280;36779;52.168;20.878;2024-03-02T04:01:55;100112.83;;;5.35;74.68
50682;BME280;36779;52.168;20.878;2024-03-02T04:04:27;100115.56;;;5.30;74.62
50682;BME280;36779;52.168;20.878;2024-03-02T04:06:59;100118.83;;;5.27;74.56
50682;BME280;36779;52.168;20.878;2024-03-02T04:09:40;100126.25;;;5.25;74.64
50682;BME280;36779;52.168;20.878;2024-03-02T04:12:16;100124.77;;;5.24;74.63
50682;BME280;36779;52.168;20.878;2024-03-02T04:14:49;100122.34;;;5.26;74.66
50682;BME280;36779;52.168;20.878;2024-03-02T04:17:21;100127.80;;;5.28;74.67
50682;BME280;36779;52.168;20.878;2024-03-02T04:19:53;100121.92;;;5.28;74.67
50682;BME280;36779;52.168;20.878;2024-03-02T04:22:26;100120.79;;;5.29;74.72
50682;BME280;36779;52.168;20.878;2024-03-02T04:24:58;100128.80;;;5.30;74.64
50682;BME280;36779;52.168;20.878;2024-03-02T04:27:31;100132.23;;;5.31;74.79
50682;BME280;36779;52.168;20.878;2024-03-02T04:30:06;100128.58;;;5.32;74.71
50682;BME280;36779;52.168;20.878;2024-03-02T04:32:38;100123.80;;;5.33;74.76
50682;BME280;36779;52.168;20.878;2024-03-02T04:35:14;100131.95;;;5.30;74.70
50682;BME280;36779;52.168;20.878;2024-03-02T04:37:53;100120.13;;;5.25;74.65
50682;BME280;36779;52.168;20.878;2024-03-02T04:40:28;100122.56;;;5.21;74.79
50682;BME280;36779;52.168;20.878;2024-03-02T04:43:01;100123.20;;;5.17;74.76
50682;BME280;36779;52.168;20.878;2024-03-02T04:45:35;100125.36;;;5.15;74.73
50682;BME280;36779;52.168;20.878;2024-03-02T04:48:10;100123.52;;;5.14;74.85
50682;BME280;36779;52.168;20.878;2024-03-02T04:50:51;100123.60;;;5.13;74.74
50682;BME280;36779;52.168;20.878;2024-03-02T04:53:24;100120.63;;;5.13;74.72
50682;BME280;36779;52.168;20.878;2024-03-02T04:55:56;100114.86;;;5.12;74.73
50682;BME280;36779;52.168;20.878;2024-03-02T04:58:51;100122.68;;;5.14;74.73
50682;BME280;36779;52.168;20.878;2024-03-02T05:01:24;100126.54;;;5.14;74.86
50682;BME280;36779;52.168;20.878;2024-03-02T05:03:56;100123.67;;;5.12;74.72
50682;BME280;36779;52.168;20.878;2024-03-02T05:06:29;100125.61;;;5.10;74.81
50682;BME280;36779;52.168;20.878;2024-03-02T05:09:04;100131.20;;;5.07;74.83
50682;BME280;36779;52.168;20.878;2024-03-02T05:11:37;100132.87;;;5.04;74.83
50682;BME280;36779;52.168;20.878;2024-03-02T05:14:51;100131.61;;;5.02;74.79
50682;BME280;36779;52.168;20.878;2024-03-02T05:17:23;100135.27;;;5.01;74.89
50682;BME280;36779;52.168;20.878;2024-03-02T05:19:57;100142.11;;;5.01;74.88
50682;BME280;36779;52.168;20.878;2024-03-02T05:22:29;100138.46;;;5.02;74.90
50682;BME280;36779;52.168;20.878;2024-03-02T05:25:02;100146.67;;;5.03;74.93
50682;BME280;36779;52.168;20.878;2024-03-02T05:27:34;100152.33;;;5.05;74.86
50682;BME280;36779;52.168;20.878;2024-03-02T05:30:08;100148.63;;;5.05;74.79
50682;BME280;36779;52.168;20.878;2024-03-02T05:32:41;100153.63;;;5.06;74.91
50682;BME280;36779;52.168;20.878;2024-03-02T05:35:28;100160.21;;;5.07;74.98
50682;BME280;36779;52.168;20.878;2024-03-02T05:38:01;100157.85;;;5.08;74.95
50682;BME280;36779;52.168;20.878;2024-03-02T05:40:34;100160.02;;;5.09;74.93
50682;BME280;36779;52.168;20.878;2024-03-02T05:43:09;100160.43;;;5.11;74.94
50682;BME280;36779;52.168;20.878;2024-03-02T05:45:42;100162.51;;;5.11;74.90
50682;BME280;36779;52.168;20.878;2024-03-02T05:48:24;100167.04;;;5.12;74.96
50682;BME280;36779;52.168;20.878;2024-03-02T05:50:57;100169.30;;;5.12;75.08
50682;BME280;36779;52.168;20.878;2024-03-02T05:53:29;100166.69;;;5.09;75.00
50682;BME280;36779;52.168;20.878;2024-03-02T05:56:04;100168.36;;;5.09;75.06
50682;BME280;36779;52.168;20.878;2024-03-02T05:58:37;100173.51;;;5.08;75.16
50682;BME280;36779;52.168;20.878;2024-03-02T06:01:32;100172.71;;;5.08;75.09
50682;BME280;36779;52.168;20.878;2024-03-02T06:04:12;100176.43;;;5.07;75.10
50682;BME280;36779;52.168;20.878;2024-03-02T06:06:47;100174.00;;;5.09;75.08
50682;BME280;36779;52.168;20.878;2024-03-02T06:09:20;100171.77;;;5.12;75.19
50682;BME280;36779;52.168;20.878;2024-03-02T06:11:56;100174.24;;;5.16;75.12
50682;BME280;36779;52.168;20.878;2024-03-02T06:14:28;100176.84;;;5.21;75.18
50682;BME280;36779;52.168;20.878;2024-03-02T06:17:03;100183.82;;;5.26;75.23
50682;BME280;36779;52.168;20.878;2024-03-02T06:19:36;100187.98;;;5.30;75.19
50682;BME280;36779;52.168;20.878;2024-03-02T06:22:08;100193.23;;;5.33;75.17
50682;BME280;36779;52.168;20.878;2024-03-02T06:24:41;100193.98;;;5.34;75.33
50682;BME280;36779;52.168;20.878;2024-03-02T06:27:25;100194.48;;;5.37;75.23
50682;BME280;36779;52.168;20.878;2024-03-02T06:29:57;100193.90;;;5.35;75.31
50682;BME280;36779;52.168;20.878;2024-03-02T06:32:30;100200.30;;;5.35;75.21
50682;BME280;36779;52.168;20.878;2024-03-02T06:35:03;100196.10;;;5.34;75.23
50682;BME280;36779;52.168;20.878;2024-03-02T06:37:37;100198.98;;;5.35;75.12
50682;BME280;36779;52.168;20.878;2024-03-02T06:40:10;100203.77;;;5.37;75.25
50682;BME280;36779;52.168;20.878;2024-03-02T06:42:47;100203.92;;;5.44;75.41
50682;BME280;36779;52.168;20.878;2024-03-02T06:45:20;100201.70;;;5.49;75.36
50682;BME280;36779;52.168;20.878;2024-03-02T06:47:53;100196.91;;;5.55;75.41
50682;BME280;36779;52.168;20.878;2024-03-02T06:50:28;100195.63;;;5.60;75.26
50682;BME280;36779;52.168;20.878;2024-03-02T06:53:03;100193.45;;;5.64;75.37
50682;BME280;36779;52.168;20.878;2024-03-02T06:55:35;100201.16;;;5.69;75.46
50682;BME280;36779;52.168;20.878;2024-03-02T06:58:08;100206.71;;;5.72;75.50
50682;BME280;36779;52.168;20.878;2024-03-02T07:00:40;100208.98;;;5.75;75.47
50682;BME280;36779;52.168;20.878;2024-03-02T07:03:14;100206.27;;;5.78;75.55
50682;BME280;36779;52.168;20.878;2024-03-02T07:05:54;100200.71;;;5.78;75.53
50682;BME280;36779;52.168;20.878;2024-03-02T07:08:26;100201.09;;;5.78;75.42
50682;BME280;36779;52.168;20.878;2024-03-02T07:10:58;100201.50;;;5.79;75.35
50682;BME280;36779;52.168;20.878;2024-03-02T07:13:32;100200.77;;;5.81;75.53
50682;BME280;36779;52.168;20.878;2024-03-02T07:16:07;100207.75;;;5.86;75.39
50682;BME280;36779;52.168;20.878;2024-03-02T07:19:03;100209.31;;;5.88;75.36
50682;BME280;36779;52.168;20.878;2024-03-02T07:21:37;100208.77;;;5.91;75.41
50682;BME280;36779;52.168;20.878;2024-03-02T07:24:10;100213.66;;;5.96;75.39
50682;BME280;36779;52.168;20.878;2024-03-02T07:26:44;100214.05;;;6.01;75.45
50682;BME280;36779;52.168;20.878;2024-03-02T07:29:22;100209.95;;;6.04;75.50
50682;BME280;36779;52.168;20.878;2024-03-02T07:31:54;100208.23;;;6.05;75.50
50682;BME280;36779;52.168;20.878;2024-03-02T07:34:26;100209.45;;;6.07;75.51
50682;BME280;36779;52.168;20.878;2024-03-02T07:36:58;100211.29;;;6.06;75.45
50682;BME280;36779;52.168;20.878;2024-03-02T07:39:39;100210.10;;;6.06;75.50
50682;BME280;36779;52.168;20.878;2024-03-02T07:42:14;100214.14;;;6.06;75.49
50682;BME280;36779;52.168;20.878;2024-03-02T07:44:50;100212.67;;;6.07;75.46
50682;BME280;36779;52.168;20.878;2024-03-02T07:47:22;100220.52;;;6.10;75.49
50682;BME280;36779;52.168;20.878;2024-03-02T07:49:54;100220.86;;;6.12;75.44
50682;BME280;36779;52.168;20.878;2024-03-02T07:52:27;100224.48;;;6.15;75.61
50682;BME280;36779;52.168;20.878;2024-03-02T07:55:00;100240.52;;;6.19;75.43
50682;BME280;36779;52.168;20.878;2024-03-02T07:57:34;100239.88;;;6.22;75.51
50682;BME280;36779;52.168;20.878;2024-03-02T08:00:09;100239.79;;;6.25;75.63
50682;BME280;36779;52.168;20.878;2024-03-02T08:02:49;100239.20;;;6.26;75.63
50682;BME280;36779;52.168;20.878;2024-03-02T08:05:25;100243.09;;;6.24;75.55
50682;BME280;36779;52.168;20.878;2024-03-02T08:07:59;100246.04;;;6.22;75.51
50682;BME280;36779;52.168;20.878;2024-03-02T08:10:31;100244.57;;;6.23;75.58
50682;BME280;36779;52.168;20.878;2024-03-02T08:13:04;100236.06;;;6.25;75.61
50682;BME280;36779;52.168;20.878;2024-03-02T08:15:37;100231.81;;;6.29;75.62
50682;BME280;36779;52.168;20.878;2024-03-02T08:18:09;100226.96;;;6.30;75.49
50682;BME280;36779;52.168;20.878;2024-03-02T08:20:41;100232.64;;;6.34;75.60
50682;BME280;36779;52.168;20.878;2024-03-02T08:23:17;100236.24;;;6.41;75.65
50682;BME280;36779;52.168;20.878;2024-03-02T08:25:50;100233.88;;;6.48;75.65
50682;BME280;36779;52.168;20.878;2024-03-02T08:28:22;100233.84;;;6.54;75.79
50682;BME280;36779;52.168;20.878;2024-03-02T08:30:54;100234.80;;;6.57;75.71
50682;BME280;36779;52.168;20.878;2024-03-02T08:33:28;100236.66;;;6.59;75.60
50682;BME280;36779;52.168;20.878;2024-03-02T08:36:03;100238.30;;;6.63;75.75
50682;BME280;36779;52.168;20.878;2024-03-02T08:38:39;100235.34;;;6.68;75.71
50682;BME280;36779;52.168;20.878;2024-03-02T08:41:11;100247.38;;;6.73;75.71
50682;BME280;36779;52.168;20.878;2024-03-02T08:43:47;100250.42;;;6.79;75.69
50682;BME280;36779;52.168;20.878;2024-03-02T08:46:20;100252.63;;;6.84;75.73
50682;BME280;36779;52.168;20.878;2024-03-02T08:48:52;100254.73;;;6.88;75.76
50682;BME280;36779;52.168;20.878;2024-03-02T08:51:26;100248.73;;;6.90;75.77
50682;BME280;36779;52.168;20.878;2024-03-02T08:54:01;100248.21;;;6.88;75.53
50682;BME280;36779;52.168;20.878;2024-03-02T08:56:34;100245.90;;;6.84;75.59
50682;BME280;36779;52.168;20.878;2024-03-02T08:59:07;100246.68;;;6.81;75.59
50682;BME280;36779;52.168;20.878;2024-03-02T09:01:47;100240.41;;;6.80;75.56
50682;BME280;36779;52.168;20.878;2024-03-02T09:04:19;100247.85;;;6.84;75.65
50682;BME280;36779;52.168;20.878;2024-03-02T09:06:56;100255.05;;;6.89;75.68
50682;BME280;36779;52.168;20.878;2024-03-02T09:09:29;100254.67;;;6.94;75.70
50682;BME280;36779;52.168;20.878;2024-03-02T09:12:03;100252.40;;;7.02;75.63
50682;BME280;36779;52.168;20.878;2024-03-02T09:14:36;100253.53;;;7.06;75.63
50682;BME280;36779;52.168;20.878;2024-03-02T09:17:09;100248.98;;;7.10;75.76
50682;BME280;36779;52.168;20.878;2024-03-02T09:19:42;100246.02;;;7.13;75.78
50682;BME280;36779;52.168;20.878;2024-03-02T09:22:18;100245.75;;;7.16;75.75
50682;BME280;36779;52.168;20.878;2024-03-02T09:24:51;100245.38;;;7.18;75.69
50682;BME280;36779;52.168;20.878;2024-03-02T09:27:23;100247.13;;;7.22;75.80
50682;BME280;36779;52.168;20.878;2024-03-02T09:29:55;100247.73;;;7.27;75.82
50682;BME280;36779;52.168;20.878;2024-03-02T09:32:27;100250.77;;;7.30;75.75
50682;BME280;36779;52.168;20.878;2024-03-02T09:34:59;100245.84;;;7.34;75.69
50682;BME280;36779;52.168;20.878;2024-03-02T09:37:32;100248.21;;;7.37;75.57
50682;BME280;36779;52.168;20.878;2024-03-02T09:40:05;100246.20;;;7.38;75.58
50682;BME280;36779;52.168;20.878;2024-03-02T09:42:38;100245.05;;;7.37;75.73
50682;BME280;36779;52.168;20.878;2024-03-02T09:45:10;100240.42;;;7.37;75.61
50682;BME280;36779;52.168;20.878;2024-03-02T09:47:44;100243.11;;;7.37;75.65
50682;BME280;36779;52.168;20.878;2024-03-02T09:50:16;100241.05;;;7.40;75.72
50682;BME280;36779;52.168;20.878;2024-03-02T09:52:50;100237.55;;;7.47;75.74
50682;BME280;36779;52.168;20.878;2024-03-02T09:55:25;100244.04;;;7.51;75.68
50682;BME280;36779;52.168;20.878;2024-03-02T09:57:57;100247.95;;;7.58;75.69
50682;BME280;36779;52.168;20.878;2024-03-02T10:00:30;100249.59;;;7.67;75.87
50682;BME280;36779;52.168;20.878;2024-03-02T10:03:02;100248.39;;;7.74;75.78
50682;BME280;36779;52.168;20.878;2024-03-02T10:05:37;100249.50;;;7.81;75.82
50682;BME280;36779;52.168;20.878;2024-03-02T10:08:09;100248.03;;;7.85;75.88
50682;BME280;36779;52.168;20.878;2024-03-02T10:10:42;100250.08;;;7.88;75.74
50682;BME280;36779;52.168;20.878;2024-03-02T10:13:17;100241.83;;;7.89;75.77
50682;BME280;36779;52.168;20.878;2024-03-02T10:15:49;100240.98;;;7.90;75.74
50682;BME280;36779;52.168;20.878;2024-03-02T10:18:28;100236.71;;;7.96;75.68
50682;BME280;36779;52.168;20.878;2024-03-02T10:21:14;100233.27;;;8.04;75.75
50682;BME280;36779;52.168;20.878;2024-03-02T10:23:47;100231.47;;;8.15;75.78
50682;BME280;36779;52.168;20.878;2024-03-02T10:26:19;100227.02;;;8.25;75.83
50682;BME280;36779;52.168;20.878;2024-03-02T10:28:51;100228.56;;;8.31;75.89
50682;BME280;36779;52.168;20.878;2024-03-02T10:31:34;100227.52;;;8.36;75.77
50682;BME280;36779;52.168;20.878;2024-03-02T10:34:19;100229.58;;;8.38;75.70
50682;BME280;36779;52.168;20.878;2024-03-02T10:36:54;100234.17;;;8.44;75.85
50682;BME280;36779;52.168;20.878;2024-03-02T10:39:27;100229.23;;;8.51;75.67
50682;BME280;36779;52.168;20.878;2024-03-02T10:42:00;100230.06;;;8.57;75.78
50682;BME280;36779;52.168;20.878;2024-03-02T10:44:34;100228.52;;;8.63;75.65
50682;BME280;36779;52.168;20.878;2024-03-02T10:47:06;100223.70;;;8.74;75.80
50682;BME280;36779;52.168;20.878;2024-03-02T10:49:43;100221.14;;;8.87;75.87
50682;BME280;36779;52.168;20.878;2024-03-02T10:52:20;100219.70;;;9.00;75.91
50682;BME280;36779;52.168;20.878;2024-03-02T10:54:54;100224.73;;;9.08;75.70
50682;BME280;36779;52.168;20.878;2024-03-02T10:57:28;100221.66;;;9.17;75.77
50682;BME280;36779;52.168;20.878;2024-03-02T11:00:08;100213.03;;;9.24;75.67
50682;BME280;36779;52.168;20.878;2024-03-02T11:02:51;100212.45;;;9.28;75.47
50682;BME280;36779;52.168;20.878;2024-03-02T11:05:28;100214.11;;;9.35;75.66
50682;BME280;36779;52.168;20.878;2024-03-02T11:08:06;100213.42;;;9.47;75.75
50682;BME280;36779;52.168;20.878;2024-03-02T11:10:45;100208.09;;;9.52;75.45
50682;BME280;36779;52.168;20.878;2024-03-02T11:13:22;100202.48;;;9.53;75.47
50682;BME280;36779;52.168;20.878;2024-03-02T11:15:59;100198.77;;;9.53;75.43
50682;BME280;36779;52.168;20.878;2024-03-02T11:18:33;100205.38;;;9.53;75.33
50682;BME280;36779;52.168;20.878;2024-03-02T11:21:06;100198.27;;;9.51;75.18
50682;BME280;36779;52.168;20.878;2024-03-02T11:23:39;100193.19;;;9.52;75.25
50682;BME280;36779;52.168;20.878;2024-03-02T11:26:20;100194.35;;;9.60;75.29
50682;BME280;36779;52.168;20.878;2024-03-02T11:28:54;100195.05;;;9.69;75.44
50682;BME280;36779;52.168;20.878;2024-03-02T11:31:58;100193.27;;;9.74;75.34
50682;BME280;36779;52.168;20.878;2024-03-02T11:34:32;100192.36;;;9.77;75.26
50682;BME280;36779;52.168;20.878;2024-03-02T11:37:06;100191.75;;;9.79;75.28
50682;BME280;36779;52.168;20.878;2024-03-02T11:39:41;100189.75;;;9.78;75.22
50682;BME280;36779;52.168;20.878;2024-03-02T11:42:17;100188.10;;;9.76;75.22
50682;BME280;36779;52.168;20.878;2024-03-02T11:44:50;100184.83;;;9.76;75.28
50682;BME280;36779;52.168;20.878;2024-03-02T11:47:22;100181.41;;;9.82;75.35
50682;BME280;36779;52.168;20.878;2024-03-02T11:49:54;100180.67;;;9.90;75.35
50682;BME280;36779;52.168;20.878;2024-03-02T11:52:28;100185.20;;;10.01;75.32
50682;BME280;36779;52.168;20.878;2024-03-02T11:55:03;100180.66;;;10.14;75.30
50682;BME280;36779;52.168;20.878;2024-03-02T11:57:36;100179.40;;;10.21;75.41
50682;BME280;36779;52.168;20.878;2024-03-02T12:00:20;100178.29;;;10.29;75.39
50682;BME280;36779;52.168;20.878;2024-03-02T12:03:02;100180.09;;;10.36;75.22
50682;BME280;36779;52.168;20.878;2024-03-02T12:05:37;100174.66;;;10.44;75.23
50682;BME280;36779;52.168;20.878;2024-03-02T12:08:12;100172.25;;;10.49;75.15
50682;BME280;36779;52.168;20.878;2024-03-02T12:10:57;100176.77;;;10.62;75.28
50682;BME280;36779;52.168;20.878;2024-03-02T12:13:30;100177.63;;;10.73;75.24
50682;BME280;36779;52.168;20.878;2024-03-02T12:16:02;100175.86;;;10.81;75.17
50682;BME280;36779;52.168;20.878;2024-03-02T12:18:37;100179.23;;;10.86;75.12
50682;BME280;36779;52.168;20.878;2024-03-02T12:21:09;100175.92;;;10.82;74.83
50682;BME280;36779;52.168;20.878;2024-03-02T12:23:41;100171.70;;;10.82;75.01
50682;BME280;36779;52.168;20.878;2024-03-02T12:26:15;100169.21;;;10.85;74.85
50682;BME280;36779;52.168;20.878;2024-03-02T12:28:48;100172.92;;;10.89;74.83
50682;BME280;36779;52.168;20.878;2024-03-02T12:31:21;100176.41;;;10.94;74.90
50682;BME280;36779;52.168;20.878;2024-03-02T12:33:53;100180.01;;;10.98;74.87
50682;BME280;36779;52.168;20.878;2024-03-02T12:36:26;100180.34;;;10.99;74.76
50682;BME280;36779;52.168;20.878;2024-03-02T12:39:01;100175.91;;;10.95;74.59
50682;BME280;36779;52.168;20.878;2024-03-02T12:41:34;100178.05;;;10.94;74.78
50682;BME280;36779;52.168;20.878;2024-03-02T12:44:10;100177.88;;;10.92;74.77
50682;BME280;36779;52.168;20.878;2024-03-02T12:46:42;100180.73;;;10.92;74.74
50682;BME280;36779;52.168;20.878;2024-03-02T12:49:21;100178.84;;;10.95;74.68
50682;BME280;36779;52.168;20.878;2024-03-02T12:51:54;100176.61;;;10.97;74.90
50682;BME280;36779;52.168;20.878;2024-03-02T12:54:29;100179.98;;;10.97;74.55
50682;BME280;36779;52.168;20.878;2024-03-02T13:00:49;100179.27;;;10.96;74.63
50682;BME280;36779;52.168;20.878;2024-03-02T13:03:23;100179.06;;;11.02;74.85
50682;BME280;36779;52.168;20.878;2024-03-02T13:05:55;100180.15;;;11.06;74.68
50682;BME280;36779;52.168;20.878;2024-03-02T13:08:27;100184.33;;;11.06;74.68
50682;BME280;36779;52.168;20.878;2024-03-02T13:10:59;100184.20;;;11.01;74.61
50682;BME280;36779;52.168;20.878;2024-03-02T13:13:34;100181.27;;;11.00;74.51
50682;BME280;36779;52.168;20.878;2024-03-02T13:16:09;100178.11;;;11.00;74.43
50682;BME280;36779;52.168;20.878;2024-03-02T13:18:44;100181.09;;;11.01;74.55
50682;BME280;36779;52.168;20.878;2024-03-02T13:21:18;100175.30;;;11.02;74.34
50682;BME280;36779;52.168;20.878;2024-03-02T13:23:51;100172.29;;;11.02;74.41
50682;BME280;36779;52.168;20.878;2024-03-02T13:26:23;100172.30;;;11.02;74.44
50682;BME280;36779;52.168;20.878;2024-03-02T13:28:55;100174.00;;;11.00;74.33
50682;BME280;36779;52.168;20.878;2024-03-02T13:31:27;100177.29;;;10.91;74.18